sensor_id;sensor_type;location;lat;lon;timestamp;temperature;humidity
18444;DHT22;9350;53.176;8.194;2022-09-09T00:02:14;15.50;99.90
18444;DHT22;9350;53.176;8.194;2022-09-09T00:04:46;15.50;99.90
18444;DHT22;9350;53.176;8.194;2022-09-09T00:07:19;15.50;99.90
18444;DHT22;9350;53.176;8.194;2022-09-09T00:09:53;15.50;99.90
18444;DHT22;9350;53.176;8.194;2022-09-09T00:12:33;15.50;99.90
18444;DHT22;9350;53.176;8.194;2022-09-09T00:15:05;15.50;99.90
18444;DHT22;9350;53.176;8.194;2022-09-09T00:17:38;15.50;99.90
18444;DHT22;9350;53.176;8.194;2022-09-09T00:20:12;15.50;99.90
18444;DHT22;9350;53.176;8.194;2022-09-09T00:22:43;15.50;99.90
18444;DHT22;9350;53.176;8.194;2022-09-09T00:25:17;15.50;99.90
18444;DHT22;9350;53.176;8.194;2022-09-09T00:27:49;15.40;99.90
18444;DHT22;9350;53.176;8.194;2022-09-09T00:30:18;15.40;99.90
18444;DHT22;9350;53.176;8.194;2022-09-09T00:32:49;15.40;99.90
18444;DHT22;9350;53.176;8.194;2022-09-09T00:35:20;15.40;99.90
18444;DHT22;9350;53.176;8.194;2022-09-09T00:37:51;15.40;99.90
18444;DHT22;9350;53.176;8.194;2022-09-09T00:40:24;15.40;99.90
18444;DHT22;9350;53.176;8.194;2022-09-09T00:43:07;15.40;99.90
18444;DHT22;9350;53.176;8.194;2022-09-09T00:46:05;15.40;99.90
18444;DHT22;9350;53.176;8.194;2022-09-09T00:48:44;15.50;99.90
18444;DHT22;9350;53.176;8.194;2022-09-09T00:51:17;15.50;99.90
18444;DHT22;9350;53.176;8.194;2022-09-09T00:54:04;15.50;99.90
18444;DHT22;9350;53.176;8.194;2022-09-09T00:56:37;15.50;99.90
18444;DHT22;9350;53.176;8.194;2022-09-09T00:59:16;15.50;99.90
18444;DHT22;9350;53.176;8.194;2022-09-09T01:01:49;15.50;99.90
18444;DHT22;9350;53.176;8.194;2022-09-09T01:04:25;15.50;99.90
18444;DHT22;9350;53.176;8.194;2022-09-09T01:06:58;15.50;99.90
18444;DHT22;9350;53.176;8.194;2022-09-09T01:09:32;15.50;99.90
18444;DHT22;9350;53.176;8.194;2022-09-09T01:12:05;15.50;99.90
18444;DHT22;9350;53.176;8.194;2022-09-09T01:14:41;15.40;99.90
18444;DHT22;9350;53.176;8.194;2022-09-09T01:17:13;15.40;99.90
18444;DHT22;9350;53.176;8.194;2022-09-09T01:19:50;15.40;99.90
18444;DHT22;9350;53.176;8.194;2022-09-09T01:22:26;15.40;99.90
18444;DHT22;9350;53.176;8.194;2022-09-09T01:25:13;15.40;99.90
18444;DHT22;9350;53.176;8.194;2022-09-09T01:27:46;15.50;99.90
18444;DHT22;9350;53.176;8.194;2022-09-09T01:30:16;15.50;99.90
18444;DHT22;9350;53.176;8.194;2022-09-09T01:32:45;15.50;99.90
18444;DHT22;9350;53.176;8.194;2022-09-09T01:35:19;15.50;99.90
18444;DHT22;9350;53.176;8.194;2022-09-09T01:37:48;15.40;99.90
18444;DHT22;9350;53.176;8.194;2022-09-09T01:40:15;15.40;99.90
18444;DHT22;9350;53.176;8.194;2022-09-09T01:42:42;15.40;99.90
18444;DHT22;9350;53.176;8.194;2022-09-09T01:45:10;15.30;99.90
18444;DHT22;9350;53.176;8.194;2022-09-09T01:47:37;15.40;99.90
18444;DHT22;9350;53.176;8.194;2022-09-09T01:50:04;15.30;99.90
18444;DHT22;9350;53.176;8.194;2022-09-09T01:52:35;15.30;99.90
18444;DHT22;9350;53.176;8.194;2022-09-09T01:55:02;15.30;99.90
18444;DHT22;9350;53.176;8.194;2022-09-09T01:57:33;15.30;99.90
18444;DHT22;9350;53.176;8.194;2022-09-09T02:00:05;15.30;99.90
18444;DHT22;9350;53.176;8.194;2022-09-09T02:02:38;15.30;99.90
18444;DHT22;9350;53.176;8.194;2022-09-09T02:05:16;15.30;99.90
18444;DHT22;9350;53.176;8.194;2022-09-09T02:07:47;15.40;99.90
18444;DHT22;9350;53.176;8.194;2022-09-09T02:10:17;15.30;99.90
18444;DHT22;9350;53.176;8.194;2022-09-09T02:12:48;15.30;99.90
18444;DHT22;9350;53.176;8.194;2022-09-09T02:15:19;15.30;99.90
18444;DHT22;9350;53.176;8.194;2022-09-09T02:17:50;15.40;99.90
18444;DHT22;9350;53.176;8.194;2022-09-09T02:20:19;15.40;99.90
18444;DHT22;9350;53.176;8.194;2022-09-09T02:22:49;15.40;99.90
18444;DHT22;9350;53.176;8.194;2022-09-09T02:25:19;15.30;99.90
18444;DHT22;9350;53.176;8.194;2022-09-09T02:27:49;15.30;99.90
18444;DHT22;9350;53.176;8.194;2022-09-09T02:30:17;15.30;99.90
18444;DHT22;9350;53.176;8.194;2022-09-09T02:32:46;15.30;99.90
18444;DHT22;9350;53.176;8.194;2022-09-09T02:35:19;15.30;99.90
18444;DHT22;9350;53.176;8.194;2022-09-09T02:37:49;15.30;99.90
18444;DHT22;9350;53.176;8.194;2022-09-09T02:40:16;15.20;99.90
18444;DHT22;9350;53.176;8.194;2022-09-09T02:42:45;15.20;99.90
18444;DHT22;9350;53.176;8.194;2022-09-09T02:45:14;15.30;99.90
18444;DHT22;9350;53.176;8.194;2022-09-09T02:47:47;15.20;99.90
18444;DHT22;9350;53.176;8.194;2022-09-09T02:50:22;15.20;99.90
18444;DHT22;9350;53.176;8.194;2022-09-09T02:53:01;15.20;99.90
18444;DHT22;9350;53.176;8.194;2022-09-09T02:55:38;15.30;99.90
18444;DHT22;9350;53.176;8.194;2022-09-09T02:58:07;15.30;99.90
18444;DHT22;9350;53.176;8.194;2022-09-09T03:00:35;15.30;99.90
18444;DHT22;9350;53.176;8.194;2022-09-09T03:03:03;15.30;99.90
18444;DHT22;9350;53.176;8.194;2022-09-09T03:05:31;15.30;99.90
18444;DHT22;9350;53.176;8.194;2022-09-09T03:07:58;15.30;99.90
18444;DHT22;9350;53.176;8.194;2022-09-09T03:10:25;15.40;99.90
18444;DHT22;9350;53.176;8.194;2022-09-09T03:12:52;15.40;99.90
18444;DHT22;9350;53.176;8.194;2022-09-09T03:15:19;15.40;99.90
18444;DHT22;9350;53.176;8.194;2022-09-09T03:17:45;15.40;99.90
18444;DHT22;9350;53.176;8.194;2022-09-09T03:20:12;15.40;99.90
18444;DHT22;9350;53.176;8.194;2022-09-09T03:22:40;15.50;99.90
18444;DHT22;9350;53.176;8.194;2022-09-09T03:25:08;15.50;99.90
18444;DHT22;9350;53.176;8.194;2022-09-09T03:27:35;15.50;99.90
18444;DHT22;9350;53.176;8.194;2022-09-09T03:30:02;15.60;99.90
18444;DHT22;9350;53.176;8.194;2022-09-09T03:32:30;15.60;99.90
18444;DHT22;9350;53.176;8.194;2022-09-09T03:34:57;15.50;99.90
18444;DHT22;9350;53.176;8.194;2022-09-09T03:37:24;15.60;99.90
18444;DHT22;9350;53.176;8.194;2022-09-09T03:39:52;15.60;99.90
18444;DHT22;9350;53.176;8.194;2022-09-09T03:42:20;15.60;99.90
18444;DHT22;9350;53.176;8.194;2022-09-09T03:44:47;15.60;99.90
18444;DHT22;9350;53.176;8.194;2022-09-09T03:47:16;15.60;99.90
18444;DHT22;9350;53.176;8.194;2022-09-09T03:49:43;15.60;99.90
18444;DHT22;9350;53.176;8.194;2022-09-09T03:52:10;15.60;99.90
18444;DHT22;9350;53.176;8.194;2022-09-09T03:54:37;15.50;99.90
18444;DHT22;9350;53.176;8.194;2022-09-09T03:57:06;15.50;99.90
18444;DHT22;9350;53.176;8.194;2022-09-09T03:59:32;15.50;99.90
18444;DHT22;9350;53.176;8.194;2022-09-09T04:02:00;15.50;99.90
18444;DHT22;9350;53.176;8.194;2022-09-09T04:04:27;15.50;99.90
18444;DHT22;9350;53.176;8.194;2022-09-09T04:06:54;15.50;99.90
18444;DHT22;9350;53.176;8.194;2022-09-09T04:09:21;15.50;99.90
18444;DHT22;9350;53.176;8.194;2022-09-09T04:11:48;15.50;99.90
18444;DHT22;9350;53.176;8.194;2022-09-09T04:14:17;15.50;99.90
18444;DHT22;9350;53.176;8.194;2022-09-09T04:16:43;15.50;99.90
18444;DHT22;9350;53.176;8.194;2022-09-09T04:19:11;15.50;99.90
18444;DHT22;9350;53.176;8.194;2022-09-09T04:21:39;15.50;99.90
18444;DHT22;9350;53.176;8.194;2022-09-09T04:24:06;15.40;99.90
18444;DHT22;9350;53.176;8.194;2022-09-09T04:26:34;15.40;99.90
18444;DHT22;9350;53.176;8.194;2022-09-09T04:29:01;15.50;99.90
18444;DHT22;9350;53.176;8.194;2022-09-09T04:31:30;15.50;99.90
18444;DHT22;9350;53.176;8.194;2022-09-09T04:33:57;15.50;99.90
18444;DHT22;9350;53.176;8.194;2022-09-09T04:36:24;15.40;99.90
18444;DHT22;9350;53.176;8.194;2022-09-09T04:38:50;15.40;99.90
18444;DHT22;9350;53.176;8.194;2022-09-09T04:41:18;15.40;99.90
18444;DHT22;9350;53.176;8.194;2022-09-09T04:43:44;15.40;99.90
18444;DHT22;9350;53.176;8.194;2022-09-09T04:46:11;15.40;99.90
18444;DHT22;9350;53.176;8.194;2022-09-09T04:48:39;15.40;99.90
18444;DHT22;9350;53.176;8.194;2022-09-09T04:51:08;15.40;99.90
18444;DHT22;9350;53.176;8.194;2022-09-09T04:53:36;15.30;99.90
18444;DHT22;9350;53.176;8.194;2022-09-09T04:56:04;15.40;99.90
18444;DHT22;9350;53.176;8.194;2022-09-09T04:58:32;15.30;99.90
18444;DHT22;9350;53.176;8.194;2022-09-09T05:01:06;15.20;99.90
18444;DHT22;9350;53.176;8.194;2022-09-09T05:03:33;15.30;99.90
18444;DHT22;9350;53.176;8.194;2022-09-09T05:06:09;15.20;99.90
18444;DHT22;9350;53.176;8.194;2022-09-09T05:08:37;15.30;99.90
18444;DHT22;9350;53.176;8.194;2022-09-09T05:11:12;15.20;99.90
18444;DHT22;9350;53.176;8.194;2022-09-09T05:13:38;15.20;99.90
18444;DHT22;9350;53.176;8.194;2022-09-09T05:16:05;15.30;99.90
18444;DHT22;9350;53.176;8.194;2022-09-09T05:18:32;15.20;99.90
18444;DHT22;9350;53.176;8.194;2022-09-09T05:20:59;15.30;99.90
18444;DHT22;9350;53.176;8.194;2022-09-09T05:23:27;15.20;99.90
18444;DHT22;9350;53.176;8.194;2022-09-09T05:25:57;15.30;99.90
18444;DHT22;9350;53.176;8.194;2022-09-09T05:28:24;15.20;99.90
18444;DHT22;9350;53.176;8.194;2022-09-09T05:30:56;15.20;99.90
18444;DHT22;9350;53.176;8.194;2022-09-09T05:33:24;15.20;99.90
18444;DHT22;9350;53.176;8.194;2022-09-09T05:35:55;15.30;99.90
18444;DHT22;9350;53.176;8.194;2022-09-09T05:38:22;15.30;99.90
18444;DHT22;9350;53.176;8.194;2022-09-09T05:40:52;15.30;99.90
18444;DHT22;9350;53.176;8.194;2022-09-09T05:43:19;15.40;99.90
18444;DHT22;9350;53.176;8.194;2022-09-09T05:45:46;15.40;99.90
18444;DHT22;9350;53.176;8.194;2022-09-09T05:48:13;15.40;99.90
18444;DHT22;9350;53.176;8.194;2022-09-09T05:50:41;15.50;99.90
18444;DHT22;9350;53.176;8.194;2022-09-09T05:53:08;15.50;99.90
18444;DHT22;9350;53.176;8.194;2022-09-09T05:55:35;15.50;99.90
18444;DHT22;9350;53.176;8.194;2022-09-09T05:58:03;15.50;99.90
18444;DHT22;9350;53.176;8.194;2022-09-09T06:00:29;15.60;99.90
18444;DHT22;9350;53.176;8.194;2022-09-09T06:02:57;15.60;99.90
18444;DHT22;9350;53.176;8.194;2022-09-09T06:05:24;15.70;99.90
18444;DHT22;9350;53.176;8.194;2022-09-09T06:07:52;15.70;99.90
18444;DHT22;9350;53.176;8.194;2022-09-09T06:10:20;15.70;99.90
18444;DHT22;9350;53.176;8.194;2022-09-09T06:12:46;15.80;99.90
18444;DHT22;9350;53.176;8.194;2022-09-09T06:15:14;15.80;99.90
18444;DHT22;9350;53.176;8.194;2022-09-09T06:17:42;15.80;99.90
18444;DHT22;9350;53.176;8.194;2022-09-09T06:20:10;15.80;99.90
18444;DHT22;9350;53.176;8.194;2022-09-09T06:22:39;15.80;99.90
18444;DHT22;9350;53.176;8.194;2022-09-09T06:25:07;15.90;99.90
18444;DHT22;9350;53.176;8.194;2022-09-09T06:27:34;15.90;99.90
18444;DHT22;9350;53.176;8.194;2022-09-09T06:30:01;15.90;99.90
18444;DHT22;9350;53.176;8.194;2022-09-09T06:32:30;15.90;99.90
18444;DHT22;9350;53.176;8.194;2022-09-09T06:34:58;15.90;99.90
18444;DHT22;9350;53.176;8.194;2022-09-09T06:37:26;16.00;99.90
18444;DHT22;9350;53.176;8.194;2022-09-09T06:39:53;16.00;99.90
18444;DHT22;9350;53.176;8.194;2022-09-09T06:42:21;16.00;99.90
18444;DHT22;9350;53.176;8.194;2022-09-09T06:44:47;16.00;99.90
18444;DHT22;9350;53.176;8.194;2022-09-09T06:47:14;16.00;99.90
18444;DHT22;9350;53.176;8.194;2022-09-09T06:49:42;16.00;99.90
18444;DHT22;9350;53.176;8.194;2022-09-09T06:52:09;16.00;99.90
18444;DHT22;9350;53.176;8.194;2022-09-09T06:54:36;16.00;99.90
18444;DHT22;9350;53.176;8.194;2022-09-09T06:57:02;16.10;99.90
18444;DHT22;9350;53.176;8.194;2022-09-09T06:59:32;16.10;99.90
18444;DHT22;9350;53.176;8.194;2022-09-09T07:01:59;16.00;99.90
18444;DHT22;9350;53.176;8.194;2022-09-09T07:04:26;16.10;99.90
18444;DHT22;9350;53.176;8.194;2022-09-09T07:06:54;16.10;99.90
18444;DHT22;9350;53.176;8.194;2022-09-09T07:09:21;16.10;99.90
18444;DHT22;9350;53.176;8.194;2022-09-09T07:11:50;16.10;99.90
18444;DHT22;9350;53.176;8.194;2022-09-09T07:14:18;16.10;99.90
18444;DHT22;9350;53.176;8.194;2022-09-09T07:16:46;16.10;99.90
18444;DHT22;9350;53.176;8.194;2022-09-09T07:19:13;16.20;99.90
18444;DHT22;9350;53.176;8.194;2022-09-09T07:21:40;16.20;99.90
18444;DHT22;9350;53.176;8.194;2022-09-09T07:24:08;16.20;99.90
18444;DHT22;9350;53.176;8.194;2022-09-09T07:26:37;16.30;99.90
18444;DHT22;9350;53.176;8.194;2022-09-09T07:29:04;16.40;99.90
18444;DHT22;9350;53.176;8.194;2022-09-09T07:31:32;16.40;99.90
18444;DHT22;9350;53.176;8.194;2022-09-09T07:33:59;16.40;99.90
18444;DHT22;9350;53.176;8.194;2022-09-09T07:36:28;16.50;99.90
18444;DHT22;9350;53.176;8.194;2022-09-09T07:38:56;16.50;99.90
18444;DHT22;9350;53.176;8.194;2022-09-09T07:41:26;16.60;99.90
18444;DHT22;9350;53.176;8.194;2022-09-09T07:43:54;16.60;99.90
18444;DHT22;9350;53.176;8.194;2022-09-09T07:46:23;16.70;99.90
18444;DHT22;9350;53.176;8.194;2022-09-09T07:48:52;16.70;99.90
18444;DHT22;9350;53.176;8.194;2022-09-09T07:51:21;16.70;99.90
18444;DHT22;9350;53.176;8.194;2022-09-09T07:53:51;16.70;99.90
18444;DHT22;9350;53.176;8.194;2022-09-09T07:56:18;16.70;99.90
18444;DHT22;9350;53.176;8.194;2022-09-09T07:58:48;16.80;99.90
18444;DHT22;9350;53.176;8.194;2022-09-09T08:01:18;16.80;99.90
18444;DHT22;9350;53.176;8.194;2022-09-09T08:03:45;16.90;99.90
18444;DHT22;9350;53.176;8.194;2022-09-09T08:06:13;16.90;99.90
18444;DHT22;9350;53.176;8.194;2022-09-09T08:08:41;16.90;99.90
18444;DHT22;9350;53.176;8.194;2022-09-09T08:11:10;17.00;99.90
18444;DHT22;9350;53.176;8.194;2022-09-09T08:13:37;17.00;99.90
18444;DHT22;9350;53.176;8.194;2022-09-09T08:16:11;17.00;99.90
18444;DHT22;9350;53.176;8.194;2022-09-09T08:18:38;17.00;99.90
18444;DHT22;9350;53.176;8.194;2022-09-09T08:21:07;17.00;99.90
18444;DHT22;9350;53.176;8.194;2022-09-09T08:23:34;17.10;99.90
18444;DHT22;9350;53.176;8.194;2022-09-09T08:26:05;17.10;99.90
18444;DHT22;9350;53.176;8.194;2022-09-09T08:28:33;17.10;99.90
18444;DHT22;9350;53.176;8.194;2022-09-09T08:31:13;17.10;99.90
18444;DHT22;9350;53.176;8.194;2022-09-09T08:33:42;17.10;99.90
18444;DHT22;9350;53.176;8.194;2022-09-09T08:36:13;17.20;99.90
18444;DHT22;9350;53.176;8.194;2022-09-09T08:38:41;17.10;99.90
18444;DHT22;9350;53.176;8.194;2022-09-09T08:41:30;17.20;99.90
18444;DHT22;9350;53.176;8.194;2022-09-09T08:44:05;17.20;99.90
18444;DHT22;9350;53.176;8.194;2022-09-09T08:46:41;17.10;99.90
18444;DHT22;9350;53.176;8.194;2022-09-09T08:49:19;17.10;99.90
18444;DHT22;9350;53.176;8.194;2022-09-09T08:51:49;17.20;99.90
18444;DHT22;9350;53.176;8.194;2022-09-09T08:54:17;17.20;99.90
18444;DHT22;9350;53.176;8.194;2022-09-09T08:56:44;17.20;99.90
18444;DHT22;9350;53.176;8.194;2022-09-09T08:59:13;17.30;99.90
18444;DHT22;9350;53.176;8.194;2022-09-09T09:01:53;17.30;99.90
18444;DHT22;9350;53.176;8.194;2022-09-09T09:04:34;17.30;99.90
18444;DHT22;9350;53.176;8.194;2022-09-09T09:07:13;17.40;99.90
18444;DHT22;9350;53.176;8.194;2022-09-09T09:09:46;17.30;99.90
18444;DHT22;9350;53.176;8.194;2022-09-09T09:12:16;17.40;99.90
18444;DHT22;9350;53.176;8.194;2022-09-09T09:14:46;17.40;99.90
18444;DHT22;9350;53.176;8.194;2022-09-09T09:17:18;17.50;99.90
18444;DHT22;9350;53.176;8.194;2022-09-09T09:19:46;17.50;99.90
18444;DHT22;9350;53.176;8.194;2022-09-09T09:22:17;17.60;99.90
18444;DHT22;9350;53.176;8.194;2022-09-09T09:24:51;17.60;99.90
18444;DHT22;9350;53.176;8.194;2022-09-09T09:27:25;17.60;99.90
18444;DHT22;9350;53.176;8.194;2022-09-09T09:29:57;17.70;99.90
18444;DHT22;9350;53.176;8.194;2022-09-09T09:32:30;17.70;99.90
18444;DHT22;9350;53.176;8.194;2022-09-09T09:34:58;17.70;99.90
18444;DHT22;9350;53.176;8.194;2022-09-09T09:37:30;17.70;99.90
18444;DHT22;9350;53.176;8.194;2022-09-09T09:40:08;17.70;99.90
18444;DHT22;9350;53.176;8.194;2022-09-09T09:42:35;17.70;99.90
18444;DHT22;9350;53.176;8.194;2022-09-09T09:45:08;17.70;99.90
18444;DHT22;9350;53.176;8.194;2022-09-09T09:47:37;17.80;99.90
18444;DHT22;9350;53.176;8.194;2022-09-09T09:50:17;17.90;99.90
18444;DHT22;9350;53.176;8.194;2022-09-09T09:52:54;17.90;99.90
18444;DHT22;9350;53.176;8.194;2022-09-09T09:55:22;18.00;99.90
18444;DHT22;9350;53.176;8.194;2022-09-09T09:57:49;18.10;99.90
18444;DHT22;9350;53.176;8.194;2022-09-09T10:00:18;18.20;99.90
18444;DHT22;9350;53.176;8.194;2022-09-09T10:02:48;18.20;99.90
18444;DHT22;9350;53.176;8.194;2022-09-09T10:05:19;18.20;99.90
18444;DHT22;9350;53.176;8.194;2022-09-09T10:07:46;18.30;99.90
18444;DHT22;9350;53.176;8.194;2022-09-09T10:10:19;18.30;99.90
18444;DHT22;9350;53.176;8.194;2022-09-09T10:12:54;18.40;99.90
18444;DHT22;9350;53.176;8.194;2022-09-09T10:15:31;18.50;99.90
18444;DHT22;9350;53.176;8.194;2022-09-09T10:18:17;18.50;99.90
18444;DHT22;9350;53.176;8.194;2022-09-09T10:20:53;18.50;99.90
18444;DHT22;9350;53.176;8.194;2022-09-09T10:23:44;18.50;99.90
18444;DHT22;9350;53.176;8.194;2022-09-09T10:26:26;18.50;99.90
18444;DHT22;9350;53.176;8.194;2022-09-09T10:29:08;18.50;99.90
18444;DHT22;9350;53.176;8.194;2022-09-09T10:31:45;18.50;99.90
18444;DHT22;9350;53.176;8.194;2022-09-09T10:34:30;18.50;99.90
18444;DHT22;9350;53.176;8.194;2022-09-09T10:37:03;18.60;99.90
18444;DHT22;9350;53.176;8.194;2022-09-09T10:39:36;18.60;99.90
18444;DHT22;9350;53.176;8.194;2022-09-09T10:42:07;18.60;99.90
18444;DHT22;9350;53.176;8.194;2022-09-09T10:44:57;18.70;99.90
18444;DHT22;9350;53.176;8.194;2022-09-09T10:47:46;18.70;99.90
18444;DHT22;9350;53.176;8.194;2022-09-09T10:50:33;18.80;99.90
18444;DHT22;9350;53.176;8.194;2022-09-09T10:53:11;18.70;99.90
18444;DHT22;9350;53.176;8.194;2022-09-09T10:55:41;18.70;99.90
18444;DHT22;9350;53.176;8.194;2022-09-09T10:58:13;18.80;99.90
18444;DHT22;9350;53.176;8.194;2022-09-09T11:00:44;18.90;99.90
18444;DHT22;9350;53.176;8.194;2022-09-09T11:03:18;18.90;99.90
18444;DHT22;9350;53.176;8.194;2022-09-09T11:05:50;18.90;99.90
18444;DHT22;9350;53.176;8.194;2022-09-09T11:08:19;18.90;99.90
18444;DHT22;9350;53.176;8.194;2022-09-09T11:10:50;18.90;99.90
18444;DHT22;9350;53.176;8.194;2022-09-09T11:13:23;18.90;99.90
18444;DHT22;9350;53.176;8.194;2022-09-09T11:15:55;18.90;99.90
18444;DHT22;9350;53.176;8.194;2022-09-09T11:18:23;18.80;99.90
18444;DHT22;9350;53.176;8.194;2022-09-09T11:20:58;18.80;99.90
18444;DHT22;9350;53.176;8.194;2022-09-09T11:23:29;18.80;99.90
18444;DHT22;9350;53.176;8.194;2022-09-09T11:26:03;18.80;99.90
18444;DHT22;9350;53.176;8.194;2022-09-09T11:28:40;18.80;99.90
18444;DHT22;9350;53.176;8.194;2022-09-09T11:31:29;18.80;99.90
18444;DHT22;9350;53.176;8.194;2022-09-09T11:34:08;18.90;99.90
18444;DHT22;9350;53.176;8.194;2022-09-09T11:37:03;18.90;99.90
18444;DHT22;9350;53.176;8.194;2022-09-09T11:39:47;19.00;99.90
18444;DHT22;9350;53.176;8.194;2022-09-09T11:42:19;19.00;99.90
18444;DHT22;9350;53.176;8.194;2022-09-09T11:44:46;19.10;99.90
18444;DHT22;9350;53.176;8.194;2022-09-09T11:47:23;19.10;99.90
18444;DHT22;9350;53.176;8.194;2022-09-09T11:49:54;19.20;99.90
18444;DHT22;9350;53.176;8.194;2022-09-09T11:52:24;19.20;99.90
18444;DHT22;9350;53.176;8.194;2022-09-09T11:54:54;19.10;99.90
18444;DHT22;9350;53.176;8.194;2022-09-09T11:57:25;19.10;99.90
18444;DHT22;9350;53.176;8.194;2022-09-09T11:59:57;19.10;99.90
18444;DHT22;9350;53.176;8.194;2022-09-09T12:02:25;19.00;99.90
18444;DHT22;9350;53.176;8.194;2022-09-09T12:04:58;19.00;99.90
18444;DHT22;9350;53.176;8.194;2022-09-09T12:07:33;19.00;99.90
18444;DHT22;9350;53.176;8.194;2022-09-09T12:10:05;19.00;99.90
18444;DHT22;9350;53.176;8.194;2022-09-09T12:12:44;19.10;99.90
18444;DHT22;9350;53.176;8.194;2022-09-09T12:15:24;19.10;99.90
18444;DHT22;9350;53.176;8.194;2022-09-09T12:17:54;19.20;99.90
18444;DHT22;9350;53.176;8.194;2022-09-09T12:20:23;19.20;99.90
18444;DHT22;9350;53.176;8.194;2022-09-09T12:23:15;19.20;99.90
18444;DHT22;9350;53.176;8.194;2022-09-09T12:25:58;19.30;99.90
18444;DHT22;9350;53.176;8.194;2022-09-09T12:28:39;19.20;99.90
18444;DHT22;9350;53.176;8.194;2022-09-09T12:31:12;19.20;99.90
18444;DHT22;9350;53.176;8.194;2022-09-09T12:33:44;19.10;99.90
18444;DHT22;9350;53.176;8.194;2022-09-09T12:36:15;18.90;99.90
18444;DHT22;9350;53.176;8.194;2022-09-09T12:38:44;18.80;99.90
18444;DHT22;9350;53.176;8.194;2022-09-09T12:41:19;18.70;99.90
18444;DHT22;9350;53.176;8.194;2022-09-09T12:43:46;18.80;99.90
18444;DHT22;9350;53.176;8.194;2022-09-09T12:46:23;18.70;99.90
18444;DHT22;9350;53.176;8.194;2022-09-09T12:48:54;18.70;99.90
18444;DHT22;9350;53.176;8.194;2022-09-09T12:51:24;18.70;99.90
18444;DHT22;9350;53.176;8.194;2022-09-09T12:53:54;18.80;99.90
18444;DHT22;9350;53.176;8.194;2022-09-09T12:56:23;18.80;99.90
18444;DHT22;9350;53.176;8.194;2022-09-09T12:58:53;18.80;99.90
18444;DHT22;9350;53.176;8.194;2022-09-09T13:01:23;18.70;99.90
18444;DHT22;9350;53.176;8.194;2022-09-09T13:03:51;18.70;99.90
18444;DHT22;9350;53.176;8.194;2022-09-09T13:06:21;18.70;99.90
18444;DHT22;9350;53.176;8.194;2022-09-09T13:08:49;18.60;99.90
18444;DHT22;9350;53.176;8.194;2022-09-09T13:11:20;18.70;99.90
18444;DHT22;9350;53.176;8.194;2022-09-09T13:13:51;18.60;99.90
18444;DHT22;9350;53.176;8.194;2022-09-09T13:16:21;18.60;99.90
18444;DHT22;9350;53.176;8.194;2022-09-09T13:18:48;18.70;99.90
18444;DHT22;9350;53.176;8.194;2022-09-09T13:21:16;18.70;99.90
18444;DHT22;9350;53.176;8.194;2022-09-09T13:23:48;18.60;99.90
18444;DHT22;9350;53.176;8.194;2022-09-09T13:26:25;18.60;99.90
18444;DHT22;9350;53.176;8.194;2022-09-09T13:28:53;18.50;99.90
18444;DHT22;9350;53.176;8.194;2022-09-09T13:31:23;18.60;99.90
18444;DHT22;9350;53.176;8.194;2022-09-09T13:33:52;18.50;99.90
18444;DHT22;9350;53.176;8.194;2022-09-09T13:36:28;18.50;99.90
18444;DHT22;9350;53.176;8.194;2022-09-09T13:38:57;18.50;99.90
18444;DHT22;9350;53.176;8.194;2022-09-09T13:41:29;18.50;99.90
18444;DHT22;9350;53.176;8.194;2022-09-09T13:43:58;18.50;99.90
18444;DHT22;9350;53.176;8.194;2022-09-09T13:46:34;18.50;99.90
18444;DHT22;9350;53.176;8.194;2022-09-09T13:49:03;18.50;99.90
18444;DHT22;9350;53.176;8.194;2022-09-09T13:51:46;18.50;99.90
18444;DHT22;9350;53.176;8.194;2022-09-09T13:54:15;18.50;99.90
18444;DHT22;9350;53.176;8.194;2022-09-09T13:56:44;18.60;99.90
18444;DHT22;9350;53.176;8.194;2022-09-09T13:59:14;18.60;99.90
18444;DHT22;9350;53.176;8.194;2022-09-09T14:01:42;18.60;99.90
18444;DHT22;9350;53.176;8.194;2022-09-09T14:04:09;18.70;99.90
18444;DHT22;9350;53.176;8.194;2022-09-09T14:06:37;18.70;99.90
18444;DHT22;9350;53.176;8.194;2022-09-09T14:09:05;18.70;99.90
18444;DHT22;9350;53.176;8.194;2022-09-09T14:11:31;18.70;99.90
18444;DHT22;9350;53.176;8.194;2022-09-09T14:14:00;18.70;99.90
18444;DHT22;9350;53.176;8.194;2022-09-09T14:16:27;18.70;99.90
18444;DHT22;9350;53.176;8.194;2022-09-09T14:18:54;18.70;99.90
18444;DHT22;9350;53.176;8.194;2022-09-09T14:21:21;18.70;99.90
18444;DHT22;9350;53.176;8.194;2022-09-09T14:23:48;18.60;99.90
18444;DHT22;9350;53.176;8.194;2022-09-09T14:26:15;18.60;99.90
18444;DHT22;9350;53.176;8.194;2022-09-09T14:28:41;18.60;99.90
18444;DHT22;9350;53.176;8.194;2022-09-09T14:31:10;18.50;99.90
18444;DHT22;9350;53.176;8.194;2022-09-09T14:33:38;18.60;99.90
18444;DHT22;9350;53.176;8.194;2022-09-09T14:36:06;18.60;99.90
18444;DHT22;9350;53.176;8.194;2022-09-09T14:38:34;18.60;99.90
18444;DHT22;9350;53.176;8.194;2022-09-09T14:41:04;18.70;99.90
18444;DHT22;9350;53.176;8.194;2022-09-09T14:43:31;18.70;99.90
18444;DHT22;9350;53.176;8.194;2022-09-09T14:45:58;18.80;99.90
18444;DHT22;9350;53.176;8.194;2022-09-09T14:48:26;18.80;99.90
18444;DHT22;9350;53.176;8.194;2022-09-09T14:50:52;18.80;99.90
18444;DHT22;9350;53.176;8.194;2022-09-09T14:53:20;18.80;99.90
18444;DHT22;9350;53.176;8.194;2022-09-09T14:55:47;18.80;99.90
18444;DHT22;9350;53.176;8.194;2022-09-09T14:58:14;18.90;99.90
18444;DHT22;9350;53.176;8.194;2022-09-09T15:00:41;19.00;99.90
18444;DHT22;9350;53.176;8.194;2022-09-09T15:03:07;18.90;99.90
18444;DHT22;9350;53.176;8.194;2022-09-09T15:05:37;18.90;99.90
18444;DHT22;9350;53.176;8.194;2022-09-09T15:08:04;18.90;99.90
18444;DHT22;9350;53.176;8.194;2022-09-09T15:10:31;18.80;99.90
18444;DHT22;9350;53.176;8.194;2022-09-09T15:12:58;18.80;99.90
18444;DHT22;9350;53.176;8.194;2022-09-09T15:15:25;18.80;99.90
18444;DHT22;9350;53.176;8.194;2022-09-09T15:21:18;18.70;99.90
18444;DHT22;9350;53.176;8.194;2022-09-09T15:23:46;18.70;99.90
18444;DHT22;9350;53.176;8.194;2022-09-09T15:26:14;18.70;99.90
18444;DHT22;9350;53.176;8.194;2022-09-09T15:28:42;18.70;99.90
18444;DHT22;9350;53.176;8.194;2022-09-09T15:31:11;18.70;99.90
18444;DHT22;9350;53.176;8.194;2022-09-09T15:33:40;18.70;99.90
18444;DHT22;9350;53.176;8.194;2022-09-09T15:36:15;18.70;99.90
18444;DHT22;9350;53.176;8.194;2022-09-09T15:38:42;18.70;99.90
18444;DHT22;9350;53.176;8.194;2022-09-09T15:41:09;18.70;99.90
18444;DHT22;9350;53.176;8.194;2022-09-09T15:43:36;18.60;99.90
18444;DHT22;9350;53.176;8.194;2022-09-09T15:46:24;18.60;99.90
18444;DHT22;9350;53.176;8.194;2022-09-09T15:48:53;18.60;99.90
18444;DHT22;9350;53.176;8.194;2022-09-09T15:51:22;18.50;99.90
18444;DHT22;9350;53.176;8.194;2022-09-09T15:53:54;18.60;99.90
18444;DHT22;9350;53.176;8.194;2022-09-09T15:56:21;18.60;99.90
18444;DHT22;9350;53.176;8.194;2022-09-09T15:58:48;18.60;99.90
18444;DHT22;9350;53.176;8.194;2022-09-09T16:01:15;18.60;99.90
18444;DHT22;9350;53.176;8.194;2022-09-09T16:03:42;18.60;99.90
18444;DHT22;9350;53.176;8.194;2022-09-09T16:06:12;18.60;99.90
18444;DHT22;9350;53.176;8.194;2022-09-09T16:08:42;18.70;99.90
18444;DHT22;9350;53.176;8.194;2022-09-09T16:11:11;18.70;99.90